Terminal Aerodrome Forecast
Issued by NWS

Home | Current Version | Previous Version | Text Only | Print | Product List | Glossary On
Versions: 1 2 3 4 5 6 7 8 9 10 11 12 13 14
000
FTUS42 KGSP 042333
TAFAND
TAF
KAND 042333Z 0500/0524 03003KT P6SM VCTS SCT070CB
      TEMPO 0501/0503 VRB20G35KT 3SM TSRA BKN040CB
     FM050300 05005KT P6SM SCT060 BKN250
     FM051000 03003KT 5SM BR SCT050
     FM051300 05006KT P6SM SCT060 PROB30 0515/0521 4SM TSRA
      BKN040CB=

USA.gov is the U.S. government's official web portal to all federal, state and local government web resources and services.